Portada
METAR-TAF:

METAR-TAF

Aeroports :

Akulivik, Quebec, Canadà

latitud: 60-49N, longitud: 078-09W, altitud: 20 m

Observació

L'informe es va fer fa 6 hores i 7 minuts, a les 21:00 UTC
Vent 2 kt amb direcció variable
Temperatura -9°C
Humitat 85%
Pressió 1009 hPa
Visibilitat: 11.3 km
Núvols disperses a una alçada de 3000 ft
Cel cobert a una alçada de 24000 ft

METAR: CYKO 262100Z VRB02KT 7SM SCT030 OVC240 M09/M11 A2981 RMK SC4CI4 LST OBS/NXT 271200Z SLP098

Hora: 23:07 (03:07 UTC)


TAF: manca

Observacions i pronòstics meteorològics de més de 4000 aeroports (METAR i TAF).

Les estacions disponibles són els punts grocs i vermells al mapa.

Posi el ratolí al punt desitjat per veure el nom de l'estació.

Feu clic per veure les observacions i els pronòstics meteorològics.

Per canviar el mapa: feu clic els botons verds amb una creu de color negre per apropar; al botó verd amb un guió per allunyar la imatge; o en les fletxes verdes per a mapes adjacents.


METAR-TAF: